Time;durP1;ratioP1;P1;durP2;ratioP2;P2;SDS_P1;SDS_P2;PMS_P1;PMS_P2;Temp;Humidity;BMP_temperature;BMP_pressure;BME280_temperature;BME280_humidity;BME280_pressure;Samples;Min_cycle;Max_cycle;Signal;HPM_P1;HPM_P2
2021/11/19 00:02:11;;;;;;;12.85;10.60;;;0.40;99.90;;;;;;6007287;23;20028;-87
2021/11/19 00:04:40;;;;;;;13.73;11.05;;;0.40;99.90;;;;;;6017698;23;20015;-88
2021/11/19 00:07:09;;;;;;;17.88;11.63;;;0.40;99.90;;;;;;6007920;23;20027;-88
2021/11/19 00:09:38;;;;;;;20.40;10.00;;;0.40;99.90;;;;;;6005333;23;20348;-88
2021/11/19 00:12:06;;;;;;;15.80;8.43;;;0.40;99.90;;;;;;6017398;23;20019;-88
2021/11/19 00:14:34;;;;;;;14.77;10.93;;;0.50;99.90;;;;;;6007658;23;20036;-88
2021/11/19 00:17:05;;;;;;;14.60;12.60;;;0.50;99.90;;;;;;5984743;23;20028;-88
2021/11/19 00:19:36;;;;;;;12.65;10.93;;;0.70;99.90;;;;;;5983842;23;20040;-87
2021/11/19 00:22:07;;;;;;;22.33;10.43;;;0.70;99.90;;;;;;6007520;23;20028;-88
2021/11/19 00:24:36;;;;;;;14.05;10.27;;;0.60;99.90;;;;;;6007466;23;20026;-87
2021/11/19 00:27:06;;;;;;;14.18;10.43;;;0.60;99.90;;;;;;6012399;23;20020;-88
2021/11/19 00:29:34;;;;;;;15.52;9.70;;;0.60;99.90;;;;;;6020921;23;20015;-88
2021/11/19 00:32:03;;;;;;;14.07;9.75;;;0.70;99.90;;;;;;6022577;23;20467;-87
2021/11/19 00:34:31;;;;;;;18.50;11.80;;;0.70;99.90;;;;;;5989017;23;20028;-88
2021/11/19 00:37:00;;;;;;;11.85;9.38;;;0.70;99.90;;;;;;5989502;23;20109;-88
2021/11/19 00:39:28;;;;;;;17.67;11.13;;;1.00;99.90;;;;;;5988171;23;20031;-88
2021/11/19 00:41:57;;;;;;;18.02;10.35;;;1.10;99.90;;;;;;6011504;23;20031;-88
2021/11/19 00:44:26;;;;;;;13.63;9.85;;;1.30;99.90;;;;;;6012914;23;20019;-88
2021/11/19 00:46:55;;;;;;;11.45;8.40;;;1.30;99.90;;;;;;6014928;23;20026;-88
2021/11/19 00:49:28;;;;;;;15.40;13.07;;;1.30;99.90;;;;;;5988299;23;20034;-88
2021/11/19 00:51:57;;;;;;;17.50;12.02;;;0.80;99.90;;;;;;5989090;23;20019;-87
2021/11/19 00:54:29;;;;;;;14.75;8.43;;;0.70;99.90;;;;;;5987632;23;20443;-88
2021/11/19 00:57:00;;;;;;;14.40;11.82;;;0.40;99.90;;;;;;5989266;23;20030;-88
2021/11/19 00:59:30;;;;;;;15.05;9.40;;;0.40;99.90;;;;;;6036047;23;20026;-87
2021/11/19 01:02:06;;;;;;;15.20;9.30;;;0.40;99.90;;;;;;5988133;23;20031;-87
2021/11/19 01:04:35;;;;;;;14.73;9.35;;;0.50;99.90;;;;;;6021540;23;20019;-84
2021/11/19 01:07:08;;;;;;;17.98;9.60;;;0.60;99.90;;;;;;5988094;23;20023;-83
2021/11/19 01:09:43;;;;;;;13.75;8.35;;;0.50;99.90;;;;;;5987813;23;20023;-88
2021/11/19 01:12:14;;;;;;;14.07;9.55;;;0.50;99.90;;;;;;6021738;23;20023;-88
2021/11/19 01:14:50;;;;;;;14.57;10.70;;;0.30;99.90;;;;;;5988730;23;20027;-87
2021/11/19 01:17:25;;;;;;;14.15;9.02;;;0.40;99.90;;;;;;6021697;23;20015;-88
2021/11/19 01:20:01;;;;;;;14.15;8.63;;;0.60;99.90;;;;;;5973290;23;20563;-88
2021/11/19 01:22:32;;;;;;;16.75;10.80;;;0.70;99.90;;;;;;6015837;23;20023;-88
2021/11/19 01:25:01;;;;;;;15.02;8.60;;;1.00;99.90;;;;;;6012330;23;20225;-88
2021/11/19 01:27:28;;;;;;;12.75;9.90;;;1.10;99.90;;;;;;5983759;23;20024;-89
2021/11/19 01:29:56;;;;;;;18.30;10.48;;;1.20;99.90;;;;;;6015278;23;20028;-88
2021/11/19 01:32:25;;;;;;;18.67;11.00;;;1.30;99.90;;;;;;6040689;23;20019;-87
2021/11/19 01:35:13;;;;;;;14.48;10.02;;;1.30;99.90;;;;;;6007297;23;20452;-88
2021/11/19 01:38:08;;;;;;;20.45;10.65;;;1.30;99.90;;;;;;6001558;23;20031;-87
2021/11/19 01:40:46;;;;;;;18.75;11.40;;;1.40;99.90;;;;;;5985009;23;20031;-87
2021/11/19 01:43:27;;;;;;;18.23;10.80;;;1.40;99.90;;;;;;5983645;23;20024;-88
2021/11/19 01:46:02;;;;;;;14.70;10.80;;;1.40;99.90;;;;;;5960746;23;20027;-89
2021/11/19 01:48:39;;;;;;;15.88;10.30;;;1.60;99.90;;;;;;5983777;23;20023;-87
2021/11/19 01:51:35;;;;;;;19.92;11.90;;;1.50;99.90;;;;;;5983368;23;20039;-88
2021/11/19 01:54:09;;;;;;;26.02;11.93;;;1.40;99.90;;;;;;6013170;23;20024;-87
2021/11/19 01:57:02;;;;;;;21.60;10.82;;;1.20;99.90;;;;;;5984097;23;20027;-87
2021/11/19 01:59:49;;;;;;;17.73;9.85;;;1.20;99.90;;;;;;5983593;23;20031;-87
2021/11/19 02:02:31;;;;;;;15.45;11.43;;;1.50;99.90;;;;;;5982767;23;20039;-87
2021/11/19 02:05:12;;;;;;;16.05;10.52;;;1.90;99.90;;;;;;5983426;23;20441;-87
2021/11/19 02:07:51;;;;;;;17.70;9.27;;;2.10;99.90;;;;;;6006169;23;20028;-88
2021/11/19 02:10:53;;;;;;;12.07;7.72;;;2.00;99.90;;;;;;5982956;23;20027;-87
2021/11/19 02:13:32;;;;;;;16.40;9.73;;;2.00;99.90;;;;;;5983387;23;20020;-88
2021/11/19 02:16:10;;;;;;;13.93;9.00;;;2.10;99.90;;;;;;5993863;23;20016;-87
2021/11/19 02:18:58;;;;;;;14.35;11.90;;;2.20;99.90;;;;;;6010723;23;20035;-88
2021/11/19 02:22:24;;;;;;;14.38;9.93;;;2.30;99.90;;;;;;5984018;23;20030;-87
2021/11/19 02:25:51;;;;;;;15.65;10.43;;;2.50;99.90;;;;;;5984781;23;20031;-87
2021/11/19 02:28:54;;;;;;;13.25;8.40;;;2.60;99.90;;;;;;6008521;23;20039;-87
2021/11/19 02:31:23;;;;;;;11.45;8.63;;;2.60;99.90;;;;;;5983897;23;20030;-87
2021/11/19 02:33:54;;;;;;;13.07;8.90;;;2.50;99.90;;;;;;6015350;23;20023;-87
2021/11/19 02:36:32;;;;;;;11.70;7.63;;;2.50;99.90;;;;;;5985643;23;20016;-86
2021/11/19 02:39:16;;;;;;;13.90;10.15;;;2.50;99.90;;;;;;6010852;23;20028;-88
2021/11/19 02:41:48;;;;;;;12.60;8.43;;;2.60;99.90;;;;;;6015347;23;20028;-89
2021/11/19 02:44:20;;;;;;;11.20;7.95;;;2.50;99.90;;;;;;6018267;23;20463;-87
2021/11/19 02:46:54;;;;;;;11.55;8.95;;;2.50;99.90;;;;;;5984811;23;20020;-86
2021/11/19 02:49:23;;;;;;;11.68;9.40;;;2.50;99.90;;;;;;6017605;23;20020;-87
2021/11/19 02:51:52;;;;;;;9.15;7.00;;;2.50;99.90;;;;;;6008649;23;20027;-86
2021/11/19 02:54:28;;;;;;;14.65;8.07;;;2.60;99.90;;;;;;5962543;23;20031;-87
2021/11/19 02:56:57;;;;;;;8.75;5.35;;;2.60;99.90;;;;;;6008046;23;20024;-86
2021/11/19 02:59:26;;;;;;;10.75;7.40;;;2.60;99.90;;;;;;6008913;23;20023;-88
2021/11/19 03:02:04;;;;;;;10.07;7.88;;;2.60;99.90;;;;;;6015815;23;20026;-87
2021/11/19 03:04:36;;;;;;;8.65;5.88;;;2.50;99.90;;;;;;6018213;23;20023;-88
2021/11/19 03:07:04;;;;;;;8.00;6.03;;;2.50;99.90;;;;;;5984903;23;20515;-86
2021/11/19 03:09:36;;;;;;;11.07;7.38;;;2.50;99.90;;;;;;5984051;23;20016;-78
2021/11/19 03:12:07;;;;;;;11.25;8.38;;;2.40;99.90;;;;;;6017895;23;20601;-88
2021/11/19 03:14:36;;;;;;;7.78;6.03;;;2.40;99.90;;;;;;5984887;23;20024;-87
2021/11/19 03:17:07;;;;;;;8.60;5.80;;;2.30;99.90;;;;;;6018572;23;20348;-87
2021/11/19 03:19:35;;;;;;;8.52;5.93;;;2.30;99.90;;;;;;5984446;23;20034;-86
2021/11/19 03:22:06;;;;;;;11.32;6.80;;;2.20;99.90;;;;;;6014120;23;20027;-87
2021/11/19 03:24:35;;;;;;;8.75;6.50;;;2.20;99.90;;;;;;5984804;23;20026;-86
2021/11/19 03:27:04;;;;;;;6.72;5.95;;;2.10;99.90;;;;;;6008391;23;20024;-87
2021/11/19 03:29:32;;;;;;;8.77;5.30;;;2.20;99.90;;;;;;5989429;23;20026;-87
2021/11/19 03:32:02;;;;;;;16.77;7.63;;;2.20;99.90;;;;;;6022618;23;20016;-87
2021/11/19 03:34:30;;;;;;;9.10;6.55;;;2.20;99.90;;;;;;6040638;23;20028;-87
2021/11/19 03:36:58;;;;;;;7.30;6.40;;;2.10;99.90;;;;;;5989595;23;20034;-87
2021/11/19 03:39:29;;;;;;;10.60;7.57;;;2.10;99.90;;;;;;6013091;23;20467;-87
2021/11/19 03:41:59;;;;;;;8.98;6.82;;;2.00;99.90;;;;;;5989013;23;20028;-86
2021/11/19 03:44:39;;;;;;;7.05;6.15;;;1.90;99.90;;;;;;5989527;23;20463;-87
2021/11/19 03:47:12;;;;;;;7.82;5.28;;;1.80;99.90;;;;;;5988930;23;20035;-87
2021/11/19 03:49:42;;;;;;;6.13;5.15;;;1.80;99.90;;;;;;6020445;23;20019;-87
2021/11/19 03:52:25;;;;;;;9.25;5.28;;;1.80;99.90;;;;;;5966549;23;20733;-87
2021/11/19 03:54:56;;;;;;;7.45;5.13;;;1.80;99.90;;;;;;5989001;23;20038;-86
2021/11/19 03:57:25;;;;;;;;;;;1.70;99.90;;;;;;6021842;23;20027;-87
2021/11/19 03:59:54;;;;;;;7.40;5.20;;;1.70;99.90;;;;;;6022072;23;19921;-87
2021/11/19 04:02:26;;;;;;;15.33;6.63;;;1.70;99.90;;;;;;6017534;23;20020;-87
2021/11/19 04:04:54;;;;;;;7.60;5.57;;;1.70;99.90;;;;;;5989805;23;20038;-86
2021/11/19 04:14:28;;;;;;;6.85;5.40;;;1.50;99.90;;;;;;6041604;23;20027;-86
2021/11/19 04:16:58;;;;;;;11.77;5.57;;;1.40;99.90;;;;;;6046045;23;20019;-86
2021/11/19 04:19:28;;;;;;;7.75;6.85;;;1.30;99.90;;;;;;6012986;23;20031;-86
2021/11/19 04:22:02;;;;;;;5.50;4.97;;;1.40;99.90;;;;;;6037660;23;20344;-87
2021/11/19 04:24:36;;;;;;;9.50;6.53;;;1.40;99.90;;;;;;6012899;23;20030;-87
2021/11/19 04:27:08;;;;;;;7.75;6.40;;;1.30;99.90;;;;;;6012421;23;20031;-86
2021/11/19 04:29:56;;;;;;;7.13;6.20;;;1.40;99.90;;;;;;6034725;23;20019;-86
2021/11/19 04:32:27;;;;;;;6.05;5.13;;;1.40;99.90;;;;;;6045991;23;20018;-86
2021/11/19 04:34:56;;;;;;;7.95;6.53;;;1.40;99.90;;;;;;6035653;23;20027;-86
2021/11/19 04:37:25;;;;;;;7.20;6.20;;;1.30;99.90;;;;;;6034827;23;20035;-85
2021/11/19 04:39:53;;;;;;;12.07;7.53;;;1.20;99.90;;;;;;6012456;23;20498;-85
2021/11/19 04:42:21;;;;;;;9.15;8.18;;;1.00;99.90;;;;;;6035770;23;20019;-87
2021/11/19 04:44:50;;;;;;;7.63;6.82;;;1.10;99.90;;;;;;6012611;23;20015;-86
2021/11/19 04:47:19;;;;;;;11.57;6.35;;;1.10;99.90;;;;;;6011880;23;20026;-87
2021/11/19 04:49:47;;;;;;;8.57;5.50;;;1.00;99.90;;;;;;6042976;23;20023;-86
2021/11/19 04:52:15;;;;;;;11.60;6.30;;;0.90;99.90;;;;;;6036087;23;20015;-86
2021/11/19 04:54:44;;;;;;;10.13;5.85;;;0.90;99.90;;;;;;6011910;23;20034;-85
2021/11/19 04:57:12;;;;;;;6.78;5.53;;;1.00;99.90;;;;;;6012295;23;20443;-85
2021/11/19 04:59:41;;;;;;;5.63;4.85;;;1.00;99.90;;;;;;6035976;23;20027;-86
2021/11/19 05:02:13;;;;;;;10.45;7.25;;;1.00;99.90;;;;;;6034898;23;20482;-86
2021/11/19 05:05:03;;;;;;;10.20;7.45;;;1.10;99.90;;;;;;6036202;23;20023;-85
2021/11/19 05:07:34;;;;;;;11.52;6.82;;;1.10;99.90;;;;;;6034112;23;20040;-86
2021/11/19 05:10:03;;;;;;;10.50;6.70;;;1.10;99.90;;;;;;6035638;23;20356;-85
2021/11/19 05:12:43;;;;;;;7.65;6.70;;;1.10;99.90;;;;;;6012062;23;20030;-85
2021/11/19 05:15:11;;;;;;;7.47;6.20;;;1.00;99.90;;;;;;6012444;23;20024;-85
2021/11/19 05:17:40;;;;;;;7.53;6.43;;;1.20;99.90;;;;;;6012013;23;20023;-85
2021/11/19 05:20:13;;;;;;;11.45;7.00;;;1.00;99.90;;;;;;6011962;23;20023;-86
2021/11/19 05:22:42;;;;;;;9.82;6.90;;;0.90;99.90;;;;;;6038786;23;20031;-85
2021/11/19 05:25:13;;;;;;;9.18;6.22;;;0.90;99.90;;;;;;6044968;23;20015;-86
2021/11/19 05:27:41;;;;;;;9.98;7.30;;;0.80;99.90;;;;;;6011754;23;20031;-86
2021/11/19 05:30:10;;;;;;;9.82;6.13;;;0.90;99.90;;;;;;6011205;23;20027;-85
2021/11/19 05:33:00;;;;;;;14.52;8.15;;;1.00;99.90;;;;;;6035662;23;20026;-85
2021/11/19 05:35:29;;;;;;;15.80;8.95;;;1.00;99.90;;;;;;6010758;23;20027;-86
2021/11/19 05:37:57;;;;;;;11.63;9.63;;;1.10;99.90;;;;;;5988283;23;20031;-86
2021/11/19 05:40:26;;;;;;;11.75;7.25;;;1.20;99.90;;;;;;5988998;23;20026;-85
2021/11/19 05:42:54;;;;;;;7.45;6.40;;;1.00;99.90;;;;;;6061996;23;20331;-85
2021/11/19 05:45:42;;;;;;;8.18;6.93;;;0.70;99.90;;;;;;6044543;23;20015;-84
2021/11/19 05:49:08;;;;;;;10.10;5.68;;;0.40;99.90;;;;;;6011708;23;20023;-85
2021/11/19 05:52:09;;;;;;;7.13;5.43;;;0.50;99.90;;;;;;6044497;23;20440;-84
2021/11/19 05:54:39;;;;;;;14.55;7.50;;;0.40;99.90;;;;;;6011121;23;20023;-85
2021/11/19 05:57:09;;;;;;;13.95;9.02;;;0.30;99.90;;;;;;6035685;23;20026;-83
2021/11/19 05:59:38;;;;;;;9.93;7.63;;;0.40;99.90;;;;;;5993275;23;20460;-81
2021/11/19 06:02:12;;;;;;;10.02;7.90;;;0.50;99.90;;;;;;6070944;23;20336;-81
2021/11/19 06:04:51;;;;;;;9.57;7.55;;;0.60;99.90;;;;;;6040049;23;20395;-80
2021/11/19 06:07:30;;;;;;;14.02;7.65;;;0.60;99.90;;;;;;6066593;23;20026;-80
2021/11/19 06:10:01;;;;;;;10.18;7.63;;;0.40;99.90;;;;;;6048717;23;20038;-82
2021/11/19 06:12:39;;;;;;;7.25;5.72;;;0.40;99.90;;;;;;6065167;23;20029;-82
2021/11/19 06:15:23;;;;;;;18.20;12.00;;;0.50;99.90;;;;;;6040969;23;20505;-81
2021/11/19 06:17:54;;;;;;;12.90;7.65;;;0.60;99.90;;;;;;6072383;23;20027;-79
2021/11/19 06:20:31;;;;;;;11.65;7.25;;;0.70;99.90;;;;;;6051676;23;20050;-84
2021/11/19 06:23:11;;;;;;;12.35;9.40;;;0.40;99.90;;;;;;6065140;23;20042;-82
2021/11/19 06:25:41;;;;;;;11.70;7.95;;;0.10;99.90;;;;;;6064576;23;20031;-84
2021/11/19 06:28:13;;;;;;;10.02;8.75;;;0.00;99.90;;;;;;6075462;23;20018;-84
2021/11/19 06:30:41;;;;;;;;;;;0.00;99.90;;;;;;6041341;23;20355;-85
2021/11/19 06:33:10;;;;;;;13.93;10.88;;;0.20;99.90;;;;;;6065317;23;19928;-84
2021/11/19 06:35:38;;;;;;;13.25;8.50;;;0.30;99.90;;;;;;6013909;23;20027;-84
2021/11/19 06:38:07;;;;;;;14.00;9.25;;;0.50;99.90;;;;;;5984988;23;20039;-83
2021/11/19 06:40:39;;;;;;;11.77;7.13;;;0.50;99.90;;;;;;6013638;23;20048;-84
2021/11/19 06:43:26;;;;;;;13.07;8.82;;;0.50;99.90;;;;;;6037026;23;20023;-84
2021/11/19 06:46:16;;;;;;;14.25;8.88;;;0.60;99.90;;;;;;6036242;23;20024;-83
2021/11/19 06:49:04;;;;;;;15.88;8.18;;;0.70;99.90;;;;;;6013738;23;20019;-84
2021/11/19 06:51:33;;;;;;;13.10;9.00;;;0.70;99.90;;;;;;6062924;23;20034;-83
2021/11/19 06:54:10;;;;;;;12.63;7.75;;;0.60;99.90;;;;;;6018994;23;20038;-83
2021/11/19 06:56:39;;;;;;;14.60;9.90;;;0.80;99.90;;;;;;6018408;23;20030;-84
2021/11/19 06:59:13;;;;;;;13.30;7.85;;;0.90;99.90;;;;;;6044608;23;20023;-84
2021/11/19 07:01:44;;;;;;;9.07;7.47;;;0.90;99.90;;;;;;6043977;23;20034;-84
2021/11/19 07:04:12;;;;;;;8.90;6.50;;;0.60;99.90;;;;;;6013276;23;20020;-85
2021/11/19 07:06:41;;;;;;;10.32;7.97;;;0.50;99.90;;;;;;6040393;23;20452;-85
2021/11/19 07:09:11;;;;;;;11.40;7.72;;;0.50;99.90;;;;;;5989009;23;20030;-84
2021/11/19 07:11:40;;;;;;;13.98;9.30;;;0.50;99.90;;;;;;6011994;23;20534;-83
2021/11/19 07:14:08;;;;;;;11.05;7.80;;;0.60;99.90;;;;;;6013644;23;20038;-82
2021/11/19 07:16:37;;;;;;;10.63;7.78;;;0.60;99.90;;;;;;6047501;23;20015;-83
2021/11/19 07:19:07;;;;;;;13.50;7.93;;;0.60;99.90;;;;;;6062097;23;20758;-77
2021/11/19 07:21:37;;;;;;;14.13;8.40;;;0.70;99.90;;;;;;6020762;23;20015;-79
2021/11/19 07:24:07;;;;;;;10.23;8.13;;;0.80;99.90;;;;;;6022227;23;20724;-79
2021/11/19 07:26:35;;;;;;;18.00;7.20;;;0.90;99.90;;;;;;6040488;23;20031;-79
2021/11/19 07:29:04;;;;;;;11.85;8.90;;;1.10;99.90;;;;;;6022577;23;20448;-79
2021/11/19 07:31:56;;;;;;;15.02;8.05;;;1.10;99.90;;;;;;6072869;23;20031;-80
2021/11/19 07:34:44;;;;;;;17.50;9.18;;;1.40;99.90;;;;;;6069969;23;20034;-79
2021/11/19 07:37:38;;;;;;;11.90;8.40;;;1.70;99.90;;;;;;6043259;23;21427;-80
2021/11/19 07:40:37;;;;;;;17.25;10.82;;;1.80;99.90;;;;;;5964291;23;20449;-82
2021/11/19 07:43:19;;;;;;;13.20;8.90;;;2.00;99.90;;;;;;5996089;23;20035;-81
2021/11/19 07:46:08;;;;;;;15.63;11.85;;;2.10;99.90;;;;;;6051166;23;20034;-82
2021/11/19 07:48:44;;;;;;;15.10;11.35;;;2.20;99.90;;;;;;6040896;23;20367;-83
2021/11/19 07:51:25;;;;;;;14.23;10.05;;;2.30;99.90;;;;;;6041935;23;20027;-81
2021/11/19 07:53:54;;;;;;;13.85;9.32;;;2.40;99.90;;;;;;6015900;23;20028;-81
2021/11/19 07:56:30;;;;;;;20.17;11.27;;;2.60;99.90;;;;;;6041389;23;20023;-81
2021/11/19 07:59:30;;;;;;;15.95;8.88;;;2.70;99.90;;;;;;6066546;23;20027;-83
2021/11/19 08:02:00;;;;;;;20.35;15.77;;;3.00;99.90;;;;;;6036715;23;20533;-84
2021/11/19 08:04:31;;;;;;;19.90;12.73;;;3.20;99.90;;;;;;6016031;23;20081;-84
2021/11/19 08:07:06;;;;;;;22.73;13.27;;;3.20;99.90;;;;;;6065509;23;20023;-80
2021/11/19 08:09:49;;;;;;;20.98;14.00;;;3.20;99.90;;;;;;6072694;23;20034;-81
2021/11/19 08:12:26;;;;;;;17.75;11.95;;;3.30;99.90;;;;;;6033598;23;20034;-76
2021/11/19 08:15:11;;;;;;;18.50;11.70;;;3.50;99.90;;;;;;6036481;23;20470;-75
2021/11/19 08:17:44;;;;;;;20.00;12.90;;;3.70;99.90;;;;;;6042939;23;20015;-76
2021/11/19 08:20:25;;;;;;;12.60;10.43;;;3.70;99.90;;;;;;6044146;23;20326;-76
2021/11/19 08:22:55;;;;;;;17.05;9.95;;;3.90;99.90;;;;;;6061189;23;20455;-76
2021/11/19 08:25:24;;;;;;;14.15;10.05;;;4.00;99.90;;;;;;6045264;23;20026;-76
2021/11/19 08:27:55;;;;;;;14.23;8.13;;;4.20;99.90;;;;;;6046666;23;20019;-76
2021/11/19 08:30:30;;;;;;;8.95;8.02;;;4.10;99.90;;;;;;6034436;23;20039;-76
2021/11/19 08:33:05;;;;;;;10.52;7.00;;;4.10;99.90;;;;;;6046236;23;20012;-75
2021/11/19 08:35:39;;;;;;;7.97;6.35;;;4.30;99.90;;;;;;6058372;23;20027;-76
2021/11/19 08:38:12;;;;;;;11.10;5.65;;;4.30;99.90;;;;;;6010239;23;20459;-76
2021/11/19 08:40:44;;;;;;;8.10;5.45;;;4.30;99.90;;;;;;6045438;23;20015;-76
2021/11/19 08:43:27;;;;;;;5.75;4.90;;;4.30;99.90;;;;;;6037208;23;20095;-76
2021/11/19 08:45:57;;;;;;;7.18;4.68;;;4.40;99.90;;;;;;6041905;23;20031;-76
2021/11/19 08:48:27;;;;;;;6.32;5.30;;;4.50;99.90;;;;;;6068047;23;20419;-76
2021/11/19 08:50:56;;;;;;;6.13;4.50;;;4.50;99.90;;;;;;6038656;23;20408;-76
2021/11/19 08:53:25;;;;;;;5.05;3.55;;;4.50;99.90;;;;;;6042571;23;20015;-76
2021/11/19 08:55:56;;;;;;;5.45;4.32;;;4.70;99.90;;;;;;6068766;23;20027;-76
2021/11/19 08:58:28;;;;;;;6.40;5.80;;;4.80;99.90;;;;;;6041391;23;20042;-76
2021/11/19 09:00:59;;;;;;;4.82;3.92;;;4.90;99.90;;;;;;6044757;23;20447;-76
2021/11/19 09:03:27;;;;;;;4.57;3.72;;;5.00;99.90;;;;;;6058890;23;20023;-76
2021/11/19 09:05:56;;;;;;;4.72;3.45;;;5.10;99.90;;;;;;6042799;23;20494;-75
2021/11/19 09:08:28;;;;;;;7.68;3.38;;;5.10;99.90;;;;;;6034400;23;20019;-76
2021/11/19 09:10:57;;;;;;;;;;;5.30;99.90;;;;;;6039488;23;20036;-76
2021/11/19 09:13:25;;;;;;;4.90;4.25;;;5.40;99.90;;;;;;6057167;23;19921;-76
2021/11/19 09:15:56;;;;;;;5.47;4.68;;;5.70;99.90;;;;;;6074902;23;20632;-76
2021/11/19 09:18:27;;;;;;;6.97;4.70;;;6.10;99.90;;;;;;6068999;23;20038;-76
2021/11/19 09:21:22;;;;;;;7.05;4.60;;;6.10;99.90;;;;;;6073729;23;20019;-76
2021/11/19 09:24:03;;;;;;;6.80;5.22;;;6.00;99.90;;;;;;6063111;23;20030;-76
2021/11/19 09:26:42;;;;;;;7.20;5.60;;;6.00;99.90;;;;;;6068985;23;20035;-76
2021/11/19 09:29:22;;;;;;;5.38;4.88;;;6.10;99.90;;;;;;6049315;23;20026;-76
2021/11/19 09:31:51;;;;;;;9.65;7.68;;;6.10;99.90;;;;;;6063988;23;20023;-77
2021/11/19 09:34:26;;;;;;;7.32;5.72;;;6.40;99.90;;;;;;6062182;23;20026;-76
2021/11/19 09:36:55;;;;;;;7.40;5.18;;;6.40;99.90;;;;;;6038784;23;20023;-82
2021/11/19 09:39:35;;;;;;;6.60;4.93;;;6.30;99.90;;;;;;6039530;23;20026;-82
2021/11/19 09:42:24;;;;;;;9.95;6.47;;;6.30;99.90;;;;;;6038809;23;20049;-82
2021/11/19 09:45:31;;;;;;;8.70;7.80;;;6.30;99.90;;;;;;6072780;23;20018;-82
2021/11/19 09:48:22;;;;;;;8.88;6.55;;;6.40;99.90;;;;;;6046320;23;20027;-81
2021/11/19 09:51:17;;;;;;;8.15;6.60;;;6.40;99.90;;;;;;6037804;23;20030;-82
2021/11/19 09:54:07;;;;;;;12.27;5.05;;;6.30;99.90;;;;;;6058898;23;20034;-81
2021/11/19 09:57:00;;;;;;;6.90;4.82;;;6.30;99.90;;;;;;6045565;23;20015;-82
2021/11/19 09:59:49;;;;;;;5.47;3.42;;;6.40;99.90;;;;;;5986475;23;20023;-82
2021/11/19 10:03:06;;;;;;;6.20;4.65;;;6.40;99.90;;;;;;6016927;23;20038;-82
2021/11/19 10:05:47;;;;;;;5.72;4.38;;;6.50;99.90;;;;;;5984110;23;20024;-81
2021/11/19 10:08:32;;;;;;;10.68;5.15;;;6.60;99.90;;;;;;6009778;23;20027;-80
2021/11/19 10:11:11;;;;;;;6.95;5.07;;;6.70;99.90;;;;;;6009915;23;20031;-81
2021/11/19 10:14:03;;;;;;;9.18;8.20;;;6.80;99.90;;;;;;6055830;23;20031;-80
2021/11/19 10:16:55;;;;;;;8.43;5.75;;;6.60;99.90;;;;;;6017368;23;20467;-81
2021/11/19 10:19:32;;;;;;;8.25;5.85;;;6.50;99.90;;;;;;6053014;23;20036;-80
2021/11/19 10:22:00;;;;;;;8.13;6.68;;;6.70;99.90;;;;;;6034357;23;20031;-81
2021/11/19 10:24:47;;;;;;;9.15;5.32;;;6.70;99.90;;;;;;6002775;23;20020;-81
2021/11/19 10:27:23;;;;;;;13.82;6.28;;;6.70;99.90;;;;;;6027879;23;20467;-80
2021/11/19 10:30:00;;;;;;;9.32;7.60;;;6.80;99.90;;;;;;6027180;23;20031;-81
2021/11/19 10:32:36;;;;;;;22.15;9.20;;;6.80;99.90;;;;;;6059970;23;20016;-81
2021/11/19 10:35:13;;;;;;;11.30;6.93;;;6.70;99.90;;;;;;6055516;23;20031;-81
2021/11/19 10:38:18;;;;;;;10.30;6.80;;;6.80;99.90;;;;;;6004392;23;20030;-81
2021/11/19 10:40:53;;;;;;;12.60;6.55;;;6.90;99.90;;;;;;6063149;23;20448;-81
2021/11/19 10:43:50;;;;;;;9.93;6.35;;;6.90;99.90;;;;;;6029289;23;20031;-81
2021/11/19 10:46:45;;;;;;;8.95;6.03;;;7.00;99.90;;;;;;6052476;23;20039;-82
2021/11/19 10:49:31;;;;;;;9.13;5.03;;;7.00;99.90;;;;;;6029783;23;20020;-81
2021/11/19 10:52:40;;;;;;;7.82;5.72;;;7.00;99.90;;;;;;6013454;23;20032;-81
2021/11/19 10:55:40;;;;;;;10.00;7.32;;;7.10;99.90;;;;;;5952722;23;20079;-82
2021/11/19 10:58:45;;;;;;;12.15;8.43;;;7.10;99.90;;;;;;6014364;23;20024;-81
2021/11/19 11:01:45;;;;;;;7.43;5.90;;;7.10;99.90;;;;;;6058618;23;20044;-82
2021/11/19 11:04:18;;;;;;;9.20;6.35;;;7.10;99.90;;;;;;6030985;23;20455;-82
2021/11/19 11:06:52;;;;;;;9.50;6.43;;;7.00;99.90;;;;;;6034210;23;20027;-82
2021/11/19 11:09:39;;;;;;;6.03;5.22;;;7.10;99.90;;;;;;6017613;23;20016;-82
2021/11/19 11:12:13;;;;;;;7.30;5.18;;;7.20;99.90;;;;;;6041781;23;20459;-81
2021/11/19 11:14:45;;;;;;;7.90;5.35;;;7.20;99.90;;;;;;6039981;23;20347;-82
2021/11/19 11:17:33;;;;;;;5.68;4.35;;;7.30;99.90;;;;;;6045347;23;20026;-80
2021/11/19 11:20:22;;;;;;;7.72;4.80;;;7.40;99.90;;;;;;5998093;23;20019;-82
2021/11/19 11:22:54;;;;;;;8.02;6.22;;;7.40;99.90;;;;;;6010325;23;20329;-81
2021/11/19 11:25:29;;;;;;;6.03;4.60;;;7.40;99.90;;;;;;6067806;23;20019;-80
2021/11/19 11:28:09;;;;;;;8.40;4.95;;;7.50;99.90;;;;;;6022100;23;20466;-81
2021/11/19 11:30:58;;;;;;;6.15;5.10;;;7.60;99.90;;;;;;6063018;23;20464;-81
2021/11/19 11:33:47;;;;;;;5.10;4.43;;;7.70;99.90;;;;;;6045840;23;20074;-80
2021/11/19 11:36:21;;;;;;;5.10;4.10;;;7.80;99.90;;;;;;6047142;23;20616;-79
2021/11/19 11:39:05;;;;;;;4.28;3.80;;;7.70;99.90;;;;;;6039425;23;20622;-83
2021/11/19 11:41:48;;;;;;;8.80;6.40;;;7.80;99.90;;;;;;6043792;23;20024;-83
2021/11/19 11:44:22;;;;;;;4.07;3.50;;;7.80;99.90;;;;;;6045506;23;20019;-83
2021/11/19 11:47:33;;;;;;;4.25;3.75;;;7.90;99.90;;;;;;6035354;23;20031;-83
2021/11/19 11:50:19;;;;;;;7.22;3.53;;;8.00;99.90;;;;;;5949294;23;20027;-83
2021/11/19 11:53:28;;;;;;;3.03;2.78;;;8.00;99.90;;;;;;6045589;23;20015;-84
2021/11/19 11:56:17;;;;;;;4.03;2.88;;;8.10;99.90;;;;;;5997447;23;20031;-83
2021/11/19 11:59:04;;;;;;;6.10;2.88;;;8.30;99.90;;;;;;5987723;23;20023;-83
2021/11/19 12:01:56;;;;;;;4.78;3.47;;;8.50;99.90;;;;;;6018427;23;20026;-84
2021/11/19 12:04:58;;;;;;;3.72;3.22;;;8.50;99.90;;;;;;6046055;23;20473;-84
2021/11/19 12:07:42;;;;;;;3.70;3.17;;;8.50;99.90;;;;;;5987513;23;20034;-84
2021/11/19 12:11:11;;;;;;;4.95;2.83;;;8.60;99.90;;;;;;6011370;23;20537;-84
2021/11/19 12:13:48;;;;;;;3.40;2.95;;;8.60;99.90;;;;;;6011234;23;20023;-80
2021/11/19 12:16:49;;;;;;;3.03;2.72;;;8.50;99.90;;;;;;6012037;23;20020;-80
2021/11/19 12:19:47;;;;;;;3.97;2.50;;;8.40;99.90;;;;;;6001727;23;20019;-83
2021/11/19 12:22:18;;;;;;;3.38;2.78;;;8.30;99.90;;;;;;6042004;23;20023;-84
2021/11/19 12:25:13;;;;;;;4.53;3.85;;;8.20;99.90;;;;;;6020931;23;20113;-85
2021/11/19 12:27:46;;;;;;;3.58;3.28;;;8.10;99.90;;;;;;5986523;23;20027;-85
2021/11/19 12:30:29;;;;;;;4.53;2.53;;;8.00;99.90;;;;;;5986804;23;20023;-84
2021/11/19 12:33:03;;;;;;;3.35;2.75;;;8.10;99.90;;;;;;6040135;23;20031;-80
2021/11/19 12:35:46;;;;;;;3.28;3.00;;;8.30;99.90;;;;;;6035762;23;20050;-81
2021/11/19 12:38:20;;;;;;;2.97;2.63;;;8.50;99.90;;;;;;6041566;23;20027;-80
2021/11/19 12:40:51;;;;;;;5.45;2.58;;;8.70;99.90;;;;;;6044466;23;20015;-80
2021/11/19 12:43:47;;;;;;;2.47;2.23;;;8.70;99.90;;;;;;6037825;23;20023;-80
2021/11/19 12:46:27;;;;;;;3.55;3.03;;;8.70;99.90;;;;;;6042243;23;20521;-80
2021/11/19 12:49:21;;;;;;;2.58;2.30;;;8.70;99.90;;;;;;6046193;23;20451;-80
2021/11/19 12:52:00;;;;;;;4.75;3.15;;;8.60;99.90;;;;;;6035952;23;20031;-79
2021/11/19 12:54:46;;;;;;;5.22;2.92;;;8.60;99.90;;;;;;6040491;23;20034;-79
2021/11/19 12:57:35;;;;;;;3.85;2.67;;;8.50;99.90;;;;;;6011643;23;20019;-79
2021/11/19 13:00:04;;;;;;;5.38;3.78;;;8.50;99.90;;;;;;6021046;23;20042;-80
2021/11/19 13:02:44;;;;;;;2.70;2.47;;;8.40;99.90;;;;;;6039286;23;20043;-80
2021/11/19 13:05:15;;;;;;;5.47;2.25;;;8.40;99.90;;;;;;6046454;23;20020;-82
2021/11/19 13:07:43;;;;;;;4.22;2.42;;;8.50;99.90;;;;;;6033273;23;20569;-81
2021/11/19 13:10:14;;;;;;;3.00;2.42;;;8.70;99.90;;;;;;6040266;23;20032;-81
2021/11/19 13:13:03;;;;;;;2.50;1.93;;;8.80;99.90;;;;;;6043055;23;20030;-80
2021/11/19 13:15:41;;;;;;;2.50;1.85;;;9.00;99.90;;;;;;6037109;23;20023;-80
2021/11/19 13:18:15;;;;;;;4.13;2.88;;;9.10;99.90;;;;;;6041515;23;20054;-80
2021/11/19 13:20:52;;;;;;;2.10;1.90;;;9.30;99.90;;;;;;6046112;23;20011;-83
2021/11/19 13:23:32;;;;;;;3.05;2.25;;;9.30;99.90;;;;;;6037043;23;20030;-82
2021/11/19 13:26:20;;;;;;;1.98;1.88;;;9.30;99.90;;;;;;6031873;23;20050;-84
2021/11/19 13:29:07;;;;;;;2.53;1.73;;;9.10;99.90;;;;;;6017844;23;20058;-85
2021/11/19 13:31:37;;;;;;;1.23;1.10;;;9.00;99.90;;;;;;6033391;23;20365;-87
2021/11/19 13:34:05;;;;;;;2.25;1.70;;;9.10;99.90;;;;;;5986384;23;20027;-89
2021/11/19 13:37:10;;;;;;;3.08;2.83;;;9.00;99.90;;;;;;6019631;23;20448;-88
2021/11/19 13:39:38;;;;;;;1.75;1.60;;;8.80;99.90;;;;;;6009016;23;20031;-87
2021/11/19 13:42:06;;;;;;;1.85;1.70;;;8.70;99.90;;;;;;6063181;23;20050;-88
2021/11/19 13:45:03;;;;;;;1.95;1.38;;;8.60;99.90;;;;;;6010409;23;20023;-86
2021/11/19 13:47:34;;;;;;;2.78;1.88;;;8.50;99.90;;;;;;6058617;23;20023;-86
2021/11/19 13:50:16;;;;;;;2.95;1.75;;;8.50;99.90;;;;;;6064247;23;20024;-86
2021/11/19 13:52:53;;;;;;;2.33;1.92;;;8.40;99.90;;;;;;6010491;23;20019;-86